Aérodrome :
LOGIN :

S'inscrire | Disclaimer

   EN    FR    IT 

 










Légende :    VFR   VFR Marginal   IFR   IFR Intensif   IFR Très Intensif
Visi : 
Plafond : 
>= 8 km
>= 3000ft
5 à 8 km
1000 à 3000 ft
1500m à 5 km
500 à 1000 ft
800 à 1500m
200 à 500 ft
< 800m
< 200 ft
Symboles :   Orages  Brouillard  Fortes neiges  Fortes précipitations  Vent > 20 kt
SIGMETs :   Divers  Orages  Givrage  Turbulence  Onde Orograph.  Cendres Volcan.






- Altitude de l'aérodrome : 16 ft
- Code IATA : EAS


LESO - San Sebastian Fuenterrabia

DERNIER METAR :
  • 161030Z 19017G29KT 150V250 CAVOK 18/03 Q1001

METARs EXPIRÉS :
  • 161000Z 18013G28KT 140V240 CAVOK 18/03 Q1001
  • 160930Z 19009G22KT 120V280 CAVOK 17/04 Q1001
  • 160900Z VRB05KT CAVOK 17/04 Q1001
  • 160830Z 21007KT 110V260 CAVOK 17/04 Q1002

TAF TAF LESO
Valide du 16 à 06h jusqu'au 17 à 06h UTC


160500Z 1606/1706 17009KT CAVOK TX17/1614Z TN11/1706Z
TEMPO 1606/1612 17015G30KT
PROB40
TEMPO 1606/1610 17020G35KT
TEMPO 1700/1702 28010KT



MET'MAP, la Météo Aéronautique d'un coup d'oeil ! - Copyright ORBIFLY Décembre 2007 - Disclaimer

ORBIFLY MET'MAP TEAM :

Programmation & Développement : Alexandra Zaïnal
Sur une idée originale de : Baudouin d'Aumeries
Assistance à la programmation : Marc-Olivier Méhu
Soutien technique & logistique : Manuel Goepfert

Contact : metmap@orbifly.com




SOURCES & CREDITS :

   NOAA